Time;durP1;ratioP1;P1;durP2;ratioP2;P2;SDS_P1;SDS_P2;PMS_P1;PMS_P2;Temp;Humidity;BMP_temperature;BMP_pressure;BME280_temperature;BME280_humidity;BME280_pressure;Samples;Min_cycle;Max_cycle;Signal;HPM_P1;HPM_P2
2021/11/28 00:00:24;;;;;;;0.80;0.80;;;;;;;-0.03;81.69;94838.47;29373;204;63009;-66
2021/11/28 00:00:56;;;;;;;0.80;0.80;;;;;;;-0.04;82.03;94836.06;29373;216;63005;-67
2021/11/28 00:01:27;;;;;;;0.80;0.80;;;;;;;-0.07;81.75;94842.75;29373;230;63009;-67
2021/11/28 00:01:58;;;;;;;0.80;0.80;;;;;;;-0.07;82.17;94834.75;29373;202;63005;-53
2021/11/28 00:02:29;;;;;;;0.80;0.80;;;;;;;-0.07;82.13;94833.94;29373;244;63009;-67
2021/11/28 00:03:02;;;;;;;0.80;0.80;;;;;;;-0.08;81.99;94833.16;29373;202;63005;-67
2021/11/28 00:03:34;;;;;;;0.80;0.80;;;;;;;-0.08;82.30;94837.69;29371;211;64009;-69
2021/11/28 00:04:06;;;;;;;0.80;0.80;;;;;;;-0.07;82.25;94839.28;29373;228;63008;-67
2021/11/28 00:04:37;;;;;;;0.80;0.80;;;;;;;-0.08;81.81;94830.50;29373;203;63009;-67
2021/11/28 00:05:08;;;;;;;0.80;0.80;;;;;;;-0.08;81.89;94835.81;29373;249;63004;-55
2021/11/28 00:05:41;;;;;;;0.80;0.80;;;;;;;-0.08;82.05;94829.69;29373;240;63009;-65
2021/11/28 00:06:22;;;;;;;0.80;0.80;;;;;;;-0.08;82.09;94833.16;29371;208;64004;-67
2021/11/28 00:07:52;;;;;;;0.80;0.80;;;;;;;-0.04;81.50;94823.53;29395;260;63004;-66
2021/11/28 00:09:31;;;;;;;0.80;0.80;;;;;;;-0.05;81.59;94827.28;29395;222;63005;-67
2021/11/28 00:11:18;;;;;;;0.80;0.80;;;;;;;-0.01;81.14;94823.00;29393;215;64005;-67
2021/11/28 00:12:09;;;;;;;0.80;0.80;;;;;;;0.02;81.19;94820.81;29395;247;63009;-69
2021/11/28 00:12:45;;;;;;;0.80;0.80;;;;;;;0.00;80.98;94816.56;29395;235;63009;-65
2021/11/28 00:13:45;;;;;;;0.80;0.80;;;;;;;0.03;80.93;94822.41;29395;233;63009;-69
2021/11/28 00:14:16;;;;;;;0.80;0.80;;;;;;;0.06;80.55;94821.84;29373;202;63004;-67
2021/11/28 00:14:54;;;;;;;0.80;0.80;;;;;;;0.08;80.61;94822.38;29371;215;64008;-68
2021/11/28 00:15:25;;;;;;;0.80;0.80;;;;;;;0.12;80.25;94820.75;29373;233;63005;-67
2021/11/28 00:15:59;;;;;;;0.80;0.80;;;;;;;0.13;80.14;94822.34;29373;218;63009;-68
2021/11/28 00:16:31;;;;;;;0.80;0.80;;;;;;;0.17;80.13;94826.84;29373;213;63017;-65
2021/11/28 00:17:03;;;;;;;0.80;0.80;;;;;;;0.21;79.81;94825.22;29373;216;63009;-67
2021/11/28 00:17:36;;;;;;;0.80;0.80;;;;;;;0.21;79.87;94821.75;29373;238;63005;-68
2021/11/28 00:18:07;;;;;;;0.85;0.85;;;;;;;0.26;79.59;94821.72;29373;216;63009;-66
2021/11/28 00:18:39;;;;;;;2.45;2.35;;;;;;;0.26;79.63;94832.41;29373;221;63005;-67
2021/11/28 00:19:10;;;;;;;0.80;0.80;;;;;;;0.27;79.38;94831.31;29373;250;63009;-65
2021/11/28 00:19:42;;;;;;;0.80;0.80;;;;;;;0.24;79.63;94829.22;29373;229;63004;-68
2021/11/28 00:20:16;;;;;;;1.42;1.42;;;;;;;0.28;79.65;94830.25;29371;249;64009;-67
2021/11/28 00:20:48;;;;;;;1.25;1.25;;;;;;;0.28;79.44;94824.91;29373;254;63004;-66
2021/11/28 00:21:19;;;;;;;0.80;0.80;;;;;;;0.25;79.59;94826.28;29373;256;63008;-66
2021/11/28 00:21:50;;;;;;;0.80;0.80;;;;;;;0.22;79.59;94824.16;29373;211;63017;-66
2021/11/28 00:22:22;;;;;;;0.80;0.80;;;;;;;0.19;79.60;94827.38;29373;257;63009;-66
2021/11/28 00:22:53;;;;;;;0.80;0.80;;;;;;;0.14;80.22;94827.41;29373;207;63005;-65
2021/11/28 00:23:24;;;;;;;0.80;0.80;;;;;;;0.15;80.05;94828.19;29373;256;63009;-68
2021/11/28 00:23:55;;;;;;;0.90;0.90;;;;;;;0.16;80.37;94821.78;29373;242;63005;-65
2021/11/28 00:24:27;;;;;;;0.80;0.80;;;;;;;0.15;80.27;94820.19;29373;258;63009;-68
2021/11/28 00:25:00;;;;;;;0.80;0.80;;;;;;;0.15;80.25;94822.88;29373;205;63005;-67
2021/11/28 00:25:33;;;;;;;0.80;0.80;;;;;;;0.11;80.48;94824.50;29371;206;64009;-69
2021/11/28 00:26:05;;;;;;;0.80;0.80;;;;;;;0.12;80.40;94818.09;29373;247;63016;-67
2021/11/28 00:26:36;;;;;;;0.80;0.80;;;;;;;0.11;80.04;94816.50;29373;236;63023;-66
2021/11/28 00:27:08;;;;;;;0.80;0.80;;;;;;;0.10;80.32;94822.91;29373;228;63004;-54
2021/11/28 00:27:41;;;;;;;0.80;0.80;;;;;;;0.09;80.39;94826.63;29373;251;63009;-66
2021/11/28 00:28:16;;;;;;;0.80;0.80;;;;;;;0.07;80.50;94813.59;29373;211;63004;-66
2021/11/28 00:28:48;;;;;;;0.80;0.80;;;;;;;0.06;80.71;94821.84;29373;198;63009;-65
2021/11/28 00:29:19;;;;;;;0.80;0.80;;;;;;;0.03;80.96;94820.53;29373;206;63004;-54
2021/11/28 00:29:51;;;;;;;0.80;0.80;;;;;;;0.01;81.14;94820.00;29373;215;63009;-67
2021/11/28 00:30:25;;;;;;;0.80;0.80;;;;;;;-0.01;81.16;94822.19;29373;200;63005;-66
2021/11/28 00:30:57;;;;;;;0.80;0.80;;;;;;;-0.02;81.27;94823.25;29371;204;64009;-66
2021/11/28 00:31:28;;;;;;;0.80;0.80;;;;;;;-0.03;81.41;94817.13;29372;198;64005;-68
2021/11/28 00:32:00;;;;;;;0.80;0.80;;;;;;;-0.04;81.57;94823.53;29371;228;64009;-55
2021/11/28 00:32:31;;;;;;;0.80;0.80;;;;;;;-0.05;81.68;94819.28;29373;207;63005;-66
2021/11/28 00:33:02;;;;;;;1.60;1.60;;;;;;;-0.07;81.77;94824.09;29373;214;63009;-66
2021/11/28 00:33:34;;;;;;;0.80;0.80;;;;;;;-0.06;81.60;94811.56;29373;241;63005;-67
2021/11/28 00:34:05;;;;;;;0.80;0.80;;;;;;;-0.07;81.70;94818.75;29373;230;63009;-66
2021/11/28 00:34:37;;;;;;;0.80;0.80;;;;;;;-0.05;81.91;94816.63;29372;217;64004;-67
2021/11/28 00:35:10;;;;;;;0.80;0.80;;;;;;;-0.07;81.43;94818.75;29373;204;63025;-67
2021/11/28 00:35:41;;;;;;;0.80;0.80;;;;;;;-0.07;81.75;94817.97;29371;208;64004;-66
2021/11/28 00:36:15;;;;;;;0.80;0.80;;;;;;;-0.07;81.34;94818.75;29373;232;63009;-67
2021/11/28 00:36:46;;;;;;;0.80;0.80;;;;;;;-0.06;81.52;94816.88;29373;198;63004;-66
2021/11/28 00:37:18;;;;;;;0.77;0.77;;;;;;;-0.05;81.36;94816.63;29373;252;63009;-66
2021/11/28 00:37:49;;;;;;;0.80;0.80;;;;;;;-0.05;81.71;94821.94;29373;306;63011;-67
2021/11/28 00:38:21;;;;;;;0.80;0.80;;;;;;;-0.03;81.80;94819.00;29373;218;63009;-66
2021/11/28 00:38:52;;;;;;;0.80;0.80;;;;;;;-0.02;81.34;94821.41;29373;222;63004;-66
2021/11/28 00:39:24;;;;;;;0.80;0.80;;;;;;;-0.02;81.53;94818.72;29373;203;63018;-55
2021/11/28 00:39:55;;;;;;;0.80;0.80;;;;;;;0.00;81.36;94824.56;29373;249;63005;-66
2021/11/28 00:40:27;;;;;;;0.80;0.80;;;;;;;0.00;80.83;94824.56;29373;205;63024;-66
2021/11/28 00:40:58;;;;;;;0.80;0.80;;;;;;;0.00;81.09;94824.56;29371;273;64005;-66
2021/11/28 00:41:29;;;;;;;0.80;0.80;;;;;;;0.00;81.22;94821.88;29373;245;63018;-66
2021/11/28 00:42:00;;;;;;;0.80;0.80;;;;;;;0.03;81.16;94827.75;29373;208;63004;-66
2021/11/28 00:42:32;;;;;;;0.80;0.80;;;;;;;0.03;80.98;94827.75;29373;217;63009;-66
2021/11/28 00:43:04;;;;;;;0.80;0.80;;;;;;;0.05;81.10;94825.59;29373;197;63004;-67
2021/11/28 00:43:37;;;;;;;0.80;0.80;;;;;;;0.05;81.16;94825.59;29373;206;63009;-66
2021/11/28 00:44:08;;;;;;;0.80;0.80;;;;;;;0.06;80.92;94821.84;29373;213;63006;-68
2021/11/28 00:44:39;;;;;;;0.80;0.80;;;;;;;0.10;80.73;94825.56;29372;219;64008;-66
2021/11/28 00:45:10;;;;;;;0.80;0.80;;;;;;;0.14;80.31;94826.59;29373;205;63005;-66
2021/11/28 00:45:42;;;;;;;0.80;0.80;;;;;;;0.12;79.88;94821.56;29373;197;63009;-65
2021/11/28 00:46:13;;;;;;;0.98;0.98;;;;;;;0.12;80.16;94826.09;29371;234;64005;-69
2021/11/28 00:46:45;;;;;;;0.80;0.80;;;;;;;0.14;79.89;94829.28;29373;240;63009;-66
2021/11/28 00:47:16;;;;;;;0.80;0.80;;;;;;;0.17;80.01;94826.06;29373;232;63016;-66
2021/11/28 00:47:50;;;;;;;0.80;0.80;;;;;;;0.23;79.54;94827.63;29373;225;63009;-68
2021/11/28 00:48:28;;;;;;;0.80;0.80;;;;;;;0.27;79.43;94829.47;29373;202;63005;-65
2021/11/28 00:49:03;;;;;;;0.80;0.80;;;;;;;0.27;79.32;94824.13;29373;240;63023;-67
2021/11/28 00:49:37;;;;;;;0.80;0.80;;;;;;;0.25;79.31;94825.47;29373;227;63004;-65
2021/11/28 00:52:06;;;;;;;0.80;0.80;;;;;;;0.12;79.93;94832.22;29394;249;64008;-66
2021/11/28 00:52:41;;;;;;;0.80;0.80;;;;;;;0.09;80.14;94834.63;29373;207;63005;-67
2021/11/28 00:53:16;;;;;;;0.80;0.80;;;;;;;0.07;79.97;94834.13;29373;231;63027;-65
2021/11/28 00:53:50;;;;;;;0.80;0.80;;;;;;;0.03;80.47;94831.19;29373;224;63010;-67
2021/11/28 00:54:22;;;;;;;0.80;0.80;;;;;;;0.03;80.23;94833.06;29373;205;63009;-64
2021/11/28 00:54:53;;;;;;;0.80;0.80;;;;;;;0.02;80.71;94832.28;29373;257;63005;-65
2021/11/28 00:55:24;;;;;;;0.80;0.80;;;;;;;0.03;80.63;94833.06;29373;238;63009;-66
2021/11/28 00:55:56;;;;;;;0.80;0.80;;;;;;;0.05;80.46;94831.72;29373;211;63005;-66
2021/11/28 00:56:27;;;;;;;0.80;0.80;;;;;;;0.06;80.29;94832.53;29373;223;63009;-65
2021/11/28 00:56:59;;;;;;;0.70;0.70;;;;;;;0.05;80.35;94828.25;29373;274;63004;-67
2021/11/28 00:57:30;;;;;;;0.80;0.80;;;;;;;0.08;80.45;94831.19;29371;218;64009;-67
2021/11/28 00:58:02;;;;;;;0.70;0.70;;;;;;;0.11;79.86;94832.50;29373;225;63004;-67
2021/11/28 00:58:33;;;;;;;0.80;0.80;;;;;;;0.11;79.88;94825.28;29372;220;64009;-66
2021/11/28 00:59:04;;;;;;;0.70;0.70;;;;;;;0.13;79.96;94822.34;29373;206;63004;-65
2021/11/28 00:59:35;;;;;;;0.80;0.80;;;;;;;0.14;79.95;94829.28;29373;196;63008;-68
2021/11/28 01:00:10;;;;;;;0.80;0.80;;;;;;;0.15;79.83;94831.66;29373;199;63005;-66
2021/11/28 01:00:43;;;;;;;0.80;0.80;;;;;;;0.24;79.09;94831.88;29373;265;63009;-67
2021/11/28 01:01:16;;;;;;;0.80;0.80;;;;;;;0.22;78.99;94826.81;29373;248;63005;-66
2021/11/28 01:01:48;;;;;;;0.80;0.80;;;;;;;0.19;79.12;94831.91;29373;250;63009;-64
2021/11/28 01:02:20;;;;;;;0.80;0.80;;;;;;;0.16;79.35;94832.47;29373;243;63005;-66
2021/11/28 01:02:52;;;;;;;0.80;0.80;;;;;;;0.13;79.88;94825.00;29371;207;64009;-66
2021/11/28 01:03:23;;;;;;;0.80;0.80;;;;;;;0.12;79.89;94826.09;29373;214;63005;-67
2021/11/28 01:03:54;;;;;;;0.90;0.90;;;;;;;0.16;79.56;94829.78;29373;210;63009;-66
2021/11/28 01:04:26;;;;;;;0.80;0.80;;;;;;;0.15;79.68;94823.66;29373;256;63007;-65
2021/11/28 01:04:58;;;;;;;0.80;0.80;;;;;;;0.14;79.42;94829.28;29373;214;63009;-64
2021/11/28 01:05:29;;;;;;;0.80;0.80;;;;;;;0.12;80.00;94826.09;29373;216;63004;-67
2021/11/28 01:06:00;;;;;;;0.80;0.80;;;;;;;0.09;80.04;94822.09;29373;201;63009;-67
2021/11/28 01:06:31;;;;;;;0.73;0.73;;;;;;;0.06;80.65;94821.84;29373;240;63013;-67
2021/11/28 01:07:03;;;;;;;0.80;0.80;;;;;;;0.03;80.76;94822.41;29373;224;63008;-65
2021/11/28 01:07:38;;;;;;;3.00;2.90;;;;;;;0.04;81.02;94829.34;29373;216;63005;-64
2021/11/28 01:08:09;;;;;;;0.80;0.80;;;;;;;0.03;80.99;94822.41;29371;215;64009;-66
2021/11/28 01:08:40;;;;;;;0.80;0.80;;;;;;;0.05;81.02;94820.25;29373;210;63007;-66
2021/11/28 01:09:13;;;;;;;0.80;0.80;;;;;;;0.05;80.89;94825.59;29373;211;63009;-67
2021/11/28 01:09:45;;;;;;;0.80;0.80;;;;;;;0.05;81.09;94825.59;29373;216;63005;-65
2021/11/28 01:10:16;;;;;;;0.80;0.80;;;;;;;0.03;81.32;94827.75;29373;262;63009;-65
2021/11/28 01:10:48;;;;;;;0.80;0.80;;;;;;;0.01;81.26;94825.34;29373;196;63005;-66
2021/11/28 01:11:22;;;;;;;0.80;0.80;;;;;;;-0.01;81.58;94823.00;29373;210;63009;-67
2021/11/28 01:11:54;;;;;;;0.80;0.80;;;;;;;0.00;81.62;94829.88;29373;249;63004;-66
2021/11/28 01:12:25;;;;;;;0.80;0.80;;;;;;;0.02;81.50;94826.16;29373;212;63009;-65
2021/11/28 01:12:56;;;;;;;0.80;0.80;;;;;;;0.03;81.70;94827.75;29373;274;63004;-65
2021/11/28 01:13:29;;;;;;;0.70;0.70;;;;;;;0.02;81.37;94826.16;29371;254;64022;-65
2021/11/28 01:14:02;;;;;;;0.80;0.80;;;;;;;0.00;81.48;94824.56;29373;196;63004;-64
2021/11/28 01:14:34;;;;;;;0.80;0.80;;;;;;;-0.01;81.32;94828.31;29373;244;63008;-65
2021/11/28 01:15:08;;;;;;;0.80;0.80;;;;;;;0.01;81.18;94833.34;29373;239;63005;-64
2021/11/28 01:15:40;;;;;;;0.80;0.80;;;;;;;0.00;81.09;94829.12;29373;221;63013;-67
2021/11/28 01:16:11;;;;;;;0.90;0.90;;;;;;;-0.04;80.99;94831.53;29373;245;63005;-65
2021/11/28 01:16:44;;;;;;;0.80;0.80;;;;;;;-0.04;80.89;94822.75;29373;198;63009;-66
2021/11/28 01:17:15;;;;;;;0.80;0.80;;;;;;;-0.03;81.11;94835.00;29373;220;63005;-65
2021/11/28 01:17:47;;;;;;;0.80;0.80;;;;;;;-0.02;80.88;94831.25;29373;213;63009;-65
2021/11/28 01:18:18;;;;;;;0.80;0.80;;;;;;;-0.02;81.28;94837.41;29373;242;63008;-65
2021/11/28 01:18:50;;;;;;;0.80;0.80;;;;;;;0.00;81.23;94837.88;29371;232;64009;-64
2021/11/28 01:19:23;;;;;;;0.80;0.80;;;;;;;0.01;81.17;94830.69;29373;199;63015;-65
2021/11/28 01:19:54;;;;;;;0.80;0.80;;;;;;;0.00;80.91;94835.22;29373;225;63009;-66
2021/11/28 01:20:25;;;;;;;0.80;0.80;;;;;;;0.04;81.21;94832.00;29373;215;63004;-65
2021/11/28 01:20:56;;;;;;;0.70;0.70;;;;;;;0.03;80.88;94841.87;29372;223;63008;-66
2021/11/28 01:21:28;;;;;;;0.77;0.77;;;;;;;0.02;80.91;94834.16;29373;192;63016;-64
2021/11/28 01:22:05;;;;;;;0.70;0.70;;;;;;;0.02;80.82;94842.16;29373;198;63008;-66
2021/11/28 01:22:37;;;;;;;0.70;0.70;;;;;;;0.02;80.87;94847.47;29373;233;63008;-64
2021/11/28 01:23:08;;;;;;;0.70;0.70;;;;;;;0.00;80.98;94848.56;29373;220;63009;-65
2021/11/28 01:23:39;;;;;;;0.80;0.80;;;;;;;0.02;80.79;94847.47;29373;227;63005;-67
2021/11/28 01:24:10;;;;;;;0.77;0.77;;;;;;;0.00;81.04;94845.88;29371;225;64009;-67
2021/11/28 01:24:43;;;;;;;0.80;0.80;;;;;;;0.00;80.84;94851.22;29373;202;63010;-66
2021/11/28 01:25:14;;;;;;;0.80;0.80;;;;;;;0.00;81.28;94851.22;29373;221;63009;-66
2021/11/28 01:25:46;;;;;;;0.70;0.70;;;;;;;0.00;81.33;94845.88;29373;232;63005;-55
2021/11/28 01:26:18;;;;;;;0.80;0.80;;;;;;;0.00;81.06;94851.22;29373;221;63009;-64
2021/11/28 01:26:50;;;;;;;0.75;0.75;;;;;;;0.00;81.47;94850.44;29373;225;63004;-64
2021/11/28 01:27:22;;;;;;;0.80;0.80;;;;;;;0.02;81.32;94850.94;29373;260;63009;-67
2021/11/28 01:27:53;;;;;;;0.80;0.80;;;;;;;0.03;81.69;94849.06;29373;199;63004;-65
2021/11/28 01:28:24;;;;;;;0.80;0.80;;;;;;;0.03;81.68;94851.75;29373;210;63008;-64
2021/11/28 01:28:56;;;;;;;0.70;0.70;;;;;;;0.04;81.54;94850.66;29373;223;63004;-66
2021/11/28 01:29:27;;;;;;;0.80;0.80;;;;;;;0.05;81.27;94849.59;29371;237;64009;-65
2021/11/28 01:29:58;;;;;;;0.73;0.73;;;;;;;0.04;81.21;94850.66;29373;222;63005;-66
2021/11/28 01:30:30;;;;;;;0.70;0.70;;;;;;;0.03;81.16;94851.75;29373;218;63009;-65
2021/11/28 01:31:01;;;;;;;0.80;0.80;;;;;;;0.03;81.26;94851.75;29373;245;63005;-65
2021/11/28 01:31:33;;;;;;;0.70;0.70;;;;;;;0.03;81.13;94854.41;29373;213;63009;-55
2021/11/28 01:32:05;;;;;;;0.80;0.80;;;;;;;0.02;81.27;94855.47;29373;220;63005;-66
2021/11/28 01:32:37;;;;;;;0.80;0.80;;;;;;;0.02;80.75;94852.81;29373;221;63023;-65
2021/11/28 01:33:09;;;;;;;0.70;0.70;;;;;;;0.00;81.16;94856.53;29373;198;63005;-66
2021/11/28 01:33:40;;;;;;;0.80;0.80;;;;;;;0.01;81.01;94852.00;29372;282;63009;-65
2021/11/28 01:34:11;;;;;;;0.80;0.80;;;;;;;0.01;81.33;94852.00;29373;263;63000;-65
2021/11/28 01:34:43;;;;;;;0.80;0.80;;;;;;;0.01;81.54;94857.34;29371;211;64009;-68
2021/11/28 01:35:18;;;;;;;0.80;0.80;;;;;;;0.00;81.70;94851.22;29373;213;63008;-65
2021/11/28 01:35:50;;;;;;;0.75;0.75;;;;;;;0.02;81.40;94858.13;29373;244;63009;-66
2021/11/28 01:36:23;;;;;;;0.80;0.80;;;;;;;0.02;81.82;94861.59;29373;209;63004;-65
2021/11/28 01:36:55;;;;;;;0.80;0.80;;;;;;;0.02;81.84;94856.28;29373;196;63027;-67
2021/11/28 01:37:27;;;;;;;0.73;0.73;;;;;;;0.03;82.11;94857.06;29373;205;63005;-65
2021/11/28 01:37:58;;;;;;;0.73;0.73;;;;;;;0.03;82.09;94859.75;29371;251;64009;-65
2021/11/28 01:38:29;;;;;;;0.70;0.70;;;;;;;0.02;81.72;94861.59;29373;197;63005;-66
2021/11/28 01:39:04;;;;;;;0.80;0.80;;;;;;;0.02;81.26;94858.94;29373;237;63009;-65
2021/11/28 01:39:36;;;;;;;0.80;0.80;;;;;;;0.01;81.29;94860.00;29373;226;63005;-68
2021/11/28 01:40:14;;;;;;;0.70;0.70;;;;;;;0.02;81.49;94863.47;29373;242;63009;-66
2021/11/28 01:40:50;;;;;;;0.80;0.80;;;;;;;0.03;81.67;94857.06;29373;197;63005;-66
2021/11/28 01:41:21;;;;;;;0.80;0.80;;;;;;;0.02;81.67;94863.47;29373;224;63009;-65
2021/11/28 01:41:53;;;;;;;0.80;0.80;;;;;;;0.03;81.69;94865.06;29373;235;63015;-67
2021/11/28 01:42:54;;;;;;;0.70;0.70;;;;;;;0.06;81.97;94875.19;29373;260;63009;-57
2021/11/28 01:43:26;;;;;;;0.80;0.80;;;;;;;0.06;81.45;94864.53;29371;243;64004;-67
2021/11/28 01:43:58;;;;;;;0.80;0.80;;;;;;;0.06;81.46;94869.84;29371;225;64008;-66
2021/11/28 01:44:30;;;;;;;0.80;0.80;;;;;;;0.07;81.74;94866.13;29373;230;63005;-65
2021/11/28 01:45:02;;;;;;;0.70;0.70;;;;;;;0.08;81.33;94875.72;29373;199;63019;-66
2021/11/28 01:45:35;;;;;;;0.70;0.70;;;;;;;0.07;81.69;94866.91;29373;244;63005;-66
2021/11/28 01:46:07;;;;;;;0.80;0.80;;;;;;;0.06;81.12;94864.53;29373;208;63017;-65
2021/11/28 01:46:38;;;;;;;0.77;0.77;;;;;;;0.05;81.29;94868.25;29373;207;63005;-65
2021/11/28 01:47:10;;;;;;;0.80;0.80;;;;;;;0.06;81.04;94869.84;29373;230;63009;-64
2021/11/28 01:47:41;;;;;;;0.80;0.80;;;;;;;0.05;81.37;94873.59;29373;214;63006;-67
2021/11/28 01:48:16;;;;;;;0.80;0.80;;;;;;;0.05;81.31;94869.06;29371;202;64009;-64
2021/11/28 01:48:47;;;;;;;0.73;0.73;;;;;;;0.05;81.19;94870.94;29373;221;63004;-65
2021/11/28 01:49:21;;;;;;;0.80;0.80;;;;;;;0.06;81.48;94867.19;29373;256;63009;-63
2021/11/28 01:49:52;;;;;;;0.80;0.80;;;;;;;0.05;81.42;94873.59;29373;210;63004;-63
2021/11/28 01:50:26;;;;;;;0.80;0.80;;;;;;;0.04;81.32;94872.00;29373;196;63009;-64
2021/11/28 01:51:02;;;;;;;0.80;0.80;;;;;;;0.07;81.69;94869.56;29373;207;63004;-66
2021/11/28 01:51:34;;;;;;;0.80;0.80;;;;;;;0.11;81.58;94875.16;29371;254;64008;-64
2021/11/28 01:52:07;;;;;;;0.77;0.77;;;;;;;0.11;81.35;94878.63;29373;235;63005;-64
2021/11/28 01:52:38;;;;;;;0.80;0.80;;;;;;;0.12;81.25;94876.75;29373;202;63009;-65
2021/11/28 01:53:19;;;;;;;0.80;0.80;;;;;;;0.14;81.40;94863.94;29373;207;63005;-63
2021/11/28 01:53:53;;;;;;;0.80;0.80;;;;;;;0.15;81.14;94873.53;29373;230;63009;-64
2021/11/28 01:54:24;;;;;;;0.80;0.80;;;;;;;0.15;81.04;94873.53;29373;229;63005;-63
2021/11/28 01:54:56;;;;;;;0.80;0.80;;;;;;;0.14;80.87;94867.41;29373;255;63009;-64
2021/11/28 01:55:30;;;;;;;0.80;0.80;;;;;;;0.14;81.03;94866.63;29373;207;63010;-65
2021/11/28 01:56:04;;;;;;;0.70;0.70;;;;;;;0.14;81.21;94874.59;29371;266;64009;-64
2021/11/28 01:56:35;;;;;;;0.70;0.70;;;;;;;0.14;81.38;94866.63;29373;209;63004;-66
2021/11/28 01:57:07;;;;;;;0.80;0.80;;;;;;;0.14;81.27;94866.63;29373;196;63009;-64
2021/11/28 01:57:38;;;;;;;0.80;0.80;;;;;;;0.14;81.39;94869.28;29373;245;63004;-64
2021/11/28 01:58:10;;;;;;;0.80;0.80;;;;;;;0.16;80.94;94869.81;29373;216;63023;-63
2021/11/28 01:58:42;;;;;;;0.70;0.70;;;;;;;0.16;80.83;94864.47;29373;218;63004;-64
2021/11/28 01:59:15;;;;;;;0.70;0.70;;;;;;;0.18;80.88;94867.66;29373;246;63008;-65
2021/11/28 01:59:46;;;;;;;0.80;0.80;;;;;;;0.19;80.65;94869.25;29371;203;64005;-64
2021/11/28 02:00:23;;;;;;;0.80;0.80;;;;;;;0.19;80.81;94869.25;29373;197;63009;-65
2021/11/28 02:00:58;;;;;;;0.70;0.70;;;;;;;0.17;81.26;94864.19;29373;214;63005;-64
2021/11/28 02:01:30;;;;;;;0.70;0.70;;;;;;;0.16;81.03;94864.47;29373;205;63009;-63
2021/11/28 02:02:02;;;;;;;0.70;0.70;;;;;;;0.15;81.13;94868.19;29373;210;63005;-64
2021/11/28 02:02:34;;;;;;;0.70;0.70;;;;;;;0.15;81.25;94862.88;29373;220;63009;-65
2021/11/28 02:03:06;;;;;;;0.80;0.80;;;;;;;0.14;81.38;94878.06;29373;204;63005;-64
2021/11/28 02:03:40;;;;;;;0.80;0.80;;;;;;;0.15;81.40;94876.22;29373;291;63009;-65
2021/11/28 02:04:16;;;;;;;0.80;0.80;;;;;;;0.14;81.73;94869.28;29373;227;63004;-68
2021/11/28 02:04:48;;;;;;;0.70;0.70;;;;;;;0.07;81.66;94858.91;29371;218;64009;-64
2021/11/28 02:05:21;;;;;;;0.80;0.80;;;;;;;0.15;81.91;94870.87;29373;197;63004;-64
2021/11/28 02:05:58;;;;;;;0.80;0.80;;;;;;;0.15;81.70;94873.53;29373;247;63009;-65
2021/11/28 02:06:30;;;;;;;0.80;0.80;;;;;;;0.14;81.61;94871.94;29371;197;64004;-63
2021/11/28 02:07:01;;;;;;;0.80;0.80;;;;;;;0.13;81.74;94865.00;29373;216;63009;-65
2021/11/28 02:07:33;;;;;;;0.80;0.80;;;;;;;0.14;81.95;94861.28;29373;215;63005;-65
2021/11/28 02:08:05;;;;;;;0.80;0.80;;;;;;;0.14;82.16;94861.28;29373;259;63024;-65
2021/11/28 02:08:37;;;;;;;0.88;0.88;;;;;;;0.17;82.08;94868.72;29373;248;63005;-65
2021/11/28 02:09:08;;;;;;;0.88;0.88;;;;;;;0.19;81.19;94871.91;29373;228;63009;-64
2021/11/28 02:09:40;;;;;;;0.90;0.90;;;;;;;0.18;81.37;94867.66;29373;211;63005;-66
2021/11/28 02:10:12;;;;;;;0.88;0.88;;;;;;;0.16;80.98;94869.81;29371;253;64009;-64
2021/11/28 02:10:44;;;;;;;0.80;0.80;;;;;;;0.14;81.29;94866.63;29373;258;63005;-65
2021/11/28 02:11:16;;;;;;;0.80;0.80;;;;;;;0.14;81.35;94863.94;29373;227;63009;-64
2021/11/28 02:11:47;;;;;;;0.80;0.80;;;;;;;0.16;81.88;94869.81;29373;205;63004;-65
2021/11/28 02:12:19;;;;;;;0.80;0.80;;;;;;;0.16;81.71;94869.81;29373;209;63009;-64
2021/11/28 02:12:52;;;;;;;0.80;0.80;;;;;;;0.16;81.72;94873.25;29373;196;63004;-63
2021/11/28 02:13:24;;;;;;;0.80;0.80;;;;;;;0.21;81.45;94870.56;29373;206;63009;-66
2021/11/28 02:13:56;;;;;;;0.80;0.80;;;;;;;0.22;81.45;94869.50;29373;247;63004;-65
2021/11/28 02:14:27;;;;;;;0.90;0.90;;;;;;;0.24;81.25;94869.22;29373;196;63008;-65
2021/11/28 02:14:59;;;;;;;0.82;0.82;;;;;;;0.24;81.41;94869.22;29373;224;63005;-63
2021/11/28 02:15:32;;;;;;;0.80;0.80;;;;;;;0.22;81.90;94869.50;29371;224;64009;-64
2021/11/28 02:16:05;;;;;;;0.80;0.80;;;;;;;0.21;81.58;94865.22;29373;208;63005;-64
2021/11/28 02:16:36;;;;;;;0.80;0.80;;;;;;;0.22;81.94;94874.03;29373;224;63009;-65
2021/11/28 02:17:07;;;;;;;0.75;0.75;;;;;;;0.22;81.86;94874.84;29373;226;63005;-65
2021/11/28 02:17:39;;;;;;;0.80;0.80;;;;;;;0.22;81.46;94874.03;29373;202;63009;-63
2021/11/28 02:18:11;;;;;;;0.80;0.80;;;;;;;0.22;81.61;94874.03;29373;196;63005;-66
2021/11/28 02:18:42;;;;;;;0.80;0.80;;;;;;;0.21;81.68;94872.44;29373;244;63008;-64
2021/11/28 02:19:14;;;;;;;0.80;0.80;;;;;;;0.19;81.57;94874.59;29371;224;64004;-64
2021/11/28 02:19:45;;;;;;;0.80;0.80;;;;;;;0.22;81.87;94864.16;29373;258;63009;-62
2021/11/28 02:20:16;;;;;;;0.70;0.70;;;;;;;0.21;81.74;94875.09;29373;212;63004;-63
2021/11/28 02:20:53;;;;;;;0.70;0.70;;;;;;;0.21;81.27;94878.56;29373;256;63009;-63
2021/11/28 02:21:24;;;;;;;0.70;0.70;;;;;;;0.20;81.28;94873.50;29373;202;63004;-64
2021/11/28 02:21:55;;;;;;;0.70;0.70;;;;;;;0.19;81.41;94871.91;29373;216;63008;-65
2021/11/28 02:22:26;;;;;;;0.80;0.80;;;;;;;0.18;81.51;94873.00;29373;197;63008;-66
2021/11/28 02:22:59;;;;;;;0.70;0.70;;;;;;;0.18;80.98;94871.13;29373;217;63009;-64
2021/11/28 02:23:32;;;;;;;0.70;0.70;;;;;;;0.18;81.04;94873.78;29371;216;64005;-64
2021/11/28 02:24:03;;;;;;;0.70;0.70;;;;;;;0.18;80.91;94873.00;29373;197;63009;-63
2021/11/28 02:24:35;;;;;;;0.80;0.80;;;;;;;0.18;81.04;94867.66;29373;217;63005;-66
2021/11/28 02:25:11;;;;;;;0.77;0.77;;;;;;;0.18;81.42;94865.78;29373;202;63009;-64
2021/11/28 02:25:43;;;;;;;0.70;0.70;;;;;;;0.16;81.17;94865.25;29373;264;63010;-64
2021/11/28 02:26:15;;;;;;;0.70;0.70;;;;;;;0.21;81.26;94867.09;29373;232;63009;-63
2021/11/28 02:26:46;;;;;;;0.80;0.80;;;;;;;0.21;80.82;94861.78;29373;225;63004;-64
2021/11/28 02:27:18;;;;;;;0.70;0.70;;;;;;;0.21;80.83;94869.78;29373;283;63009;-64
2021/11/28 02:27:49;;;;;;;0.75;0.75;;;;;;;0.21;80.93;94867.09;29373;206;63004;-63
2021/11/28 02:28:20;;;;;;;0.80;0.80;;;;;;;0.21;80.93;94875.09;29373;225;63008;-63
2021/11/28 02:28:52;;;;;;;0.80;0.80;;;;;;;0.21;81.03;94872.44;29371;234;64004;-63
2021/11/28 02:29:23;;;;;;;0.80;0.80;;;;;;;0.21;81.34;94872.44;29373;246;63008;-65
2021/11/28 02:29:55;;;;;;;0.80;0.80;;;;;;;0.21;81.20;94861.78;29373;217;63005;-64
2021/11/28 02:30:26;;;;;;;0.80;0.80;;;;;;;0.22;81.12;94863.37;29372;197;64009;-63
2021/11/28 02:30:58;;;;;;;0.80;0.80;;;;;;;0.18;80.98;94865.00;29373;222;63009;-64
2021/11/28 02:31:30;;;;;;;0.70;0.70;;;;;;;0.16;80.93;94869.81;29373;203;63009;-65
2021/11/28 02:32:01;;;;;;;0.80;0.80;;;;;;;0.15;81.05;94868.19;29373;228;63005;-64
2021/11/28 02:32:32;;;;;;;0.80;0.80;;;;;;;0.16;81.42;94869.81;29373;240;63017;-63
2021/11/28 02:33:04;;;;;;;0.80;0.80;;;;;;;0.15;81.14;94869.00;29373;224;63004;-63
2021/11/28 02:33:37;;;;;;;0.80;0.80;;;;;;;0.17;81.37;94869.53;29373;204;63023;-64
2021/11/28 02:34:08;;;;;;;0.75;0.75;;;;;;;0.18;81.09;94867.66;29371;202;64004;-62
2021/11/28 02:34:39;;;;;;;0.80;0.80;;;;;;;0.20;81.02;94873.50;29373;281;63009;-62
2021/11/28 02:35:14;;;;;;;0.70;0.70;;;;;;;0.20;81.05;94863.63;29373;236;63004;-65
2021/11/28 02:35:46;;;;;;;0.80;0.80;;;;;;;0.22;81.15;94868.69;29373;198;63008;-66
2021/11/28 02:36:17;;;;;;;0.73;0.73;;;;;;;0.22;80.82;94858.03;29373;258;63004;-65
2021/11/28 02:36:53;;;;;;;0.80;0.80;;;;;;;0.22;81.31;94868.69;29373;221;63027;-64
2021/11/28 02:37:24;;;;;;;0.70;0.70;;;;;;;0.21;81.48;94872.44;29373;209;63005;-65
2021/11/28 02:37:55;;;;;;;0.80;0.80;;;;;;;0.20;81.15;94862.84;29371;248;64009;-66
2021/11/28 02:38:27;;;;;;;0.70;0.70;;;;;;;0.16;81.16;94865.25;29373;266;63005;-63
2021/11/28 02:38:58;;;;;;;0.80;0.80;;;;;;;0.16;81.25;94862.59;29373;204;63009;-66
2021/11/28 02:39:34;;;;;;;0.80;0.80;;;;;;;0.18;81.54;94867.66;29371;216;64005;-63
2021/11/28 02:40:06;;;;;;;0.80;0.80;;;;;;;0.18;81.31;94865.78;29373;294;63009;-63
2021/11/28 02:40:41;;;;;;;0.70;0.70;;;;;;;0.19;81.56;94863.91;29373;202;63009;-63
2021/11/28 02:41:13;;;;;;;0.77;0.77;;;;;;;0.18;81.84;94857.00;29373;240;63009;-64
2021/11/28 02:41:45;;;;;;;0.70;0.70;;;;;;;0.16;81.75;94854.59;29373;198;63004;-64